Silver Peak Trail, Santa Catalina Island Weather observations

Data are for 10 minute period ending at time listed.
 Day   Time   Solar   Ave.   Ave.  Ave.  Vector    Max.   Stn.    Total
  of    of     Rad.   Air    Rel.  Wind   Wind     Wind   Baro.  Precip.
Year   Day            Temp.  Hum.  Speed  Dir.     Gust   Pres.         
2015   (PST)   W/m2    F      %     mph   deg.      mph    mb.     in.  
------------------------------------------------------------------------
 115    0:00    0.0    50   94.0     6    219.9     7.8    999.0   0.00  
 115    0:10    0.0    50   94.1     6    228.3     8.4    999.0   0.00  
 115    0:20    0.0    50   94.4     5    220.0     6.0    999.0   0.00  
 115    0:30    0.0    50   94.5     6    222.5     7.8    999.0   0.00  
 115    0:40    0.0    50   94.7     5    215.6     6.6    999.0   0.00  
 115    0:50    0.0    50   94.7     5    214.5     6.6    999.0   0.00  
 115    1:00    0.0    50   94.8     5    222.2     7.2    999.0   0.00  
 115    1:10    0.0    50   94.9     6    237.9     7.8    999.0   0.00  
 115    1:20    0.0    50   95.0     4    293.7     4.8    999.0   0.00  
 115    1:30    0.0    50   95.0     2    279.2     4.2    999.0   0.00  
 115    1:40    0.0    50   95.1     3    243.9     5.4    999.0   0.00  
 115    1:50    0.0    50   95.2     4      3.0     4.8    999.0   0.00  
 115    2:00    0.0    49   95.2     3     23.7     4.8    999.0   0.00  
 115    2:10    0.0    50   95.2     4     43.7     5.4    999.0   0.00  
 115    2:20    0.0    50   95.2     4     55.4     4.8    999.0   0.00  
 115    2:30    0.0    50   95.2     4     37.8     4.2    999.0   0.00  
 115    2:40    0.0    50   95.2     4     45.3     5.4    999.0   0.00  
 115    2:50    0.0    50   95.2     5     32.0     6.0    999.0   0.00  
 115    3:00    0.0    50   95.2     6     27.8     6.6    999.0   0.00  
 115    3:10    0.0    49   95.2     6     16.9     7.2    999.0   0.00  
 115    3:20    0.0    50   95.3     5    347.1     7.2    999.0   0.00  
 115    3:30    0.0    49   95.3     6    322.6     9.0    999.0   0.00  
 115    3:40    0.0    49   95.2     4    333.6     6.6    999.0   0.00  
 115    3:50    0.0    50   95.2     4      4.9     4.8    999.0   0.00  
 115    4:00    0.0    50   95.1     3    311.8     4.8    999.0   0.00  
 115    4:10    0.0    50   94.9     3    300.5     4.2    999.0   0.00  
 115    4:20    0.0    50   94.7     4    280.8     6.6    999.0   0.00  
 115    4:30    0.0    50   94.5     3    248.6     5.4    999.0   0.00  
 115    4:40    0.0    50   94.2     4    238.3     6.6    999.0   0.00  
 115    4:50    0.0    50   93.9     4    229.2     6.0    999.0   0.00  
 115    5:00    0.0    50   93.7     4    253.8     6.0    999.0   0.00  
 115    5:10    0.0    50   93.5     2    259.4     4.2    999.0   0.00  
 115    5:20    1.0    51   93.6     2    259.3     3.6    999.0   0.00  
 115    5:30    3.0    51   93.7     2    247.4     3.0    999.0   0.00  
 115    5:40    4.0    51   93.8     3    217.3     4.2    999.0   0.00  
 115    5:50   12.0    51   93.9     3    187.0     4.2    999.0   0.00  
 115    6:00   31.0    51   94.1     3    176.2     4.8    999.0   0.00  
 115    6:10   17.0    51   94.2     3    192.6     4.2    999.0   0.00  
 115    6:20   52.0    51   94.4     4    235.2     4.8    999.0   0.00  
 115    6:30   81.0    51   94.6     3    223.9     4.8    999.0   0.00  
 115    6:40   17.0    51   94.3     4    212.3     5.4    999.0   0.00  
 115    6:50   64.0    51   94.5     2    204.3     4.8    999.0   0.00  
 115    7:00   59.0    51   94.4     2    217.4     4.8    999.0   0.00  
 115    7:10  144.0    52   94.4     2    194.8     3.6    999.0   0.00  
 115    7:20  206.0    53   93.8     2    222.1     4.8    999.0   0.00  
 115    7:30  164.0    53   93.2     3    217.9     4.8    999.0   0.00  
 115    7:40  248.0    54   92.8     3    230.3     5.4    999.0   0.00  
 115    7:50  456.0    56   90.0     3    229.1     7.2    999.0   0.00  
 115    8:00  491.0    57   84.4     4    233.0     7.2    999.0   0.00  
 115    8:10  229.0    56   83.3     4    225.0     9.0    999.0   0.00  
 115    8:20  198.0    54   85.1     5    232.2     9.6    999.0   0.00  
 115    8:30  171.0    54   87.2     4    242.7    10.2    999.0   0.00  
 115    8:40  186.0    54   88.0     5    247.4    10.2    999.0   0.00  
 115    8:50  234.0    54   87.8     6    226.1    12.5    999.0   0.00  
 115    9:00  254.0    55   86.2     4    223.0     9.6    999.0   0.00  
 115    9:10  568.0    56   84.4     5    206.5     9.0    999.0   0.00  
 115    9:20  426.0    57   81.5     5    222.5    10.2    999.0   0.00  
 115    9:30  529.0    57   82.1     5    221.0    10.2    999.0   0.00  
 115    9:40  614.0    58   81.1     5    231.9    13.7    999.0   0.00  
 115    9:50  491.0    58   78.4     6    214.4    11.3    999.0   0.00  
 115   10:00  385.0    56   81.7     7    224.5    16.1    999.0   0.00  
 115   10:10  276.0    55   82.7     7    235.4    13.7    999.0   0.00  
 115   10:20  345.0    55   83.3     6    240.9    15.5    999.0   0.00  
 115   10:30  275.0    55   82.6     7    239.3    15.5    999.0   0.00  
 115   10:40  248.0    54   84.8     8    235.0    14.3    999.0   0.00  
 115   10:50  335.0    55   87.2     9    253.6    22.7    999.0   0.00  
 115   11:00  295.0    55   87.9    10    250.0    22.7    999.0   0.00  
 115   11:10  249.0    54   89.9    12    253.4    23.3    999.0   0.00  
 115   11:20  999.0    54   91.1    12    241.7    25.6    999.0   0.00  
 115   11:30  488.0    55   90.7    12    243.9    22.7    999.0   0.00  
 115   11:40  999.0    56   89.9    13    240.9    28.6    999.0   0.00  
 115   11:50  999.0    56   90.6    12    234.9    24.5    999.0   0.00  
 115   12:00  999.0    56   90.0    14    237.3    25.0    999.0   0.00  
 115   12:10  999.0    56   89.1    14    233.3    27.4    999.0   0.00  
 115   12:20  339.0    56   89.5    14    237.9    25.0    999.0   0.00  
 115   12:30  266.0    55   90.5    12    226.6    22.7    999.0   0.00  
 115   12:40  202.0    54   90.8    16    230.0    25.6    999.0   0.00  
 115   12:50  197.0    54   91.7    15    235.7    27.4    999.0   0.00  
 115   13:00  103.0    54   92.2    12    231.4    24.5    999.0   0.00  
 115   13:10  199.0    54   93.1    18    229.7    34.0    999.0   0.00  
 115   13:20  140.0    54   93.8    16    233.4    28.0    999.0   0.00  
 115   13:30  145.0    54   94.2    16    237.2    27.4    999.0   0.00  
 115   13:40  160.0    54   94.6    18    235.6    29.8    999.0   0.00  
 115   13:50  154.0    54   94.8    19    231.5    31.0    999.0   0.00  
 115   14:00  210.0    54   95.0    19    230.6    34.6    999.0   0.00  
 115   14:10  198.0    54   95.2    18    234.1    32.2    999.0   0.00  
 115   14:20  187.0    54   95.3    16    228.2    31.6    999.0   0.00  
 115   14:30  138.0    54   95.4    16    228.8    33.4    999.0   0.00  
 115   14:40   76.0    54   95.5    16    234.0    31.0    999.0   0.00  
 115   14:50   71.0    54   95.6    17    234.4    30.4    999.0   0.00  
 115   15:00  113.0    54   95.7    19    231.3    32.2    999.0   0.00  
 115   15:10  133.0    54   95.8    19    237.8    27.4    999.0   0.00  
 115   15:20  189.0    54   95.8    19    234.9    32.2    999.0   0.00  
 115   15:30  184.0    54   95.8    19    227.6    34.6    999.0   0.00  
 115   15:40  154.0    54   95.9    19    228.7    32.2    999.0   0.00  
 115   15:50  147.0    53   95.9    19    229.8    34.0    999.0   0.00  
 115   16:00  237.0    54   96.0    20    223.6    32.8    999.0   0.00  
 115   16:10  179.0    54   96.0    19    228.5    32.8    999.0   0.00  
 115   16:20  156.0    54   96.0    17    228.4    29.8    999.0   0.00  
 115   16:30  147.0    54   96.1    14    231.8    27.4    999.0   0.00  
 115   16:40  179.0    54   96.1    16    228.3    29.2    999.0   0.00  
 115   16:50  128.0    53   96.1    16    231.9    31.6    999.0   0.00  
 115   17:00   93.0    52   96.0    18    232.2    32.8    999.0   0.00  
 115   17:10   89.0    52   96.0    20    225.2    36.4    999.0   0.00  
 115   17:20   59.0    51   96.0    20    231.9    29.8    999.0   0.00  
 115   17:30   47.0    51   96.0    22    228.4    39.9    999.0   0.00  
 115   17:40   44.0    51   95.9    22    228.5    35.8    999.0   0.00  
 115   17:50   32.0    51   96.0    22    230.4    34.0    999.0   0.00  
 115   18:00   60.0    50   95.9    21    230.6    34.6    999.0   0.00  
 115   18:10   49.0    50   95.6    22    236.4    35.8    999.0   0.00  
 115   18:20   42.0    50   95.4    24    238.0    38.2    999.0   0.00  
 115   18:30   24.0    50   92.9    24    236.7    40.5    999.0   0.00  
 115   18:40    8.0    50   90.1    24    240.4    43.5    999.0   0.00  
 115   18:50    2.0    50   89.3    23    235.8    43.5    999.0   0.00  
 115   19:00    0.0    50   88.6    24    239.3    38.2    999.0   0.00  
 115   19:10    0.0    50   89.2    22    243.5    35.8    999.0   0.00  
 115   19:20    0.0    50   90.0    21    255.2    37.0    999.0   0.00  
 115   19:30    0.0    50   91.0    23    259.0    37.0    999.0   0.00  
 115   19:40    0.0    50   92.2    22    256.2    37.6    999.0   0.00  
 115   19:50    0.0    49   92.6    21    257.9    36.4    999.0   0.00  
 115   20:00    0.0    49   92.2    22    253.2    35.2    999.0   0.00  
 115   20:10    0.0    49   91.7    18    255.8    33.4    999.0   0.00  
 115   20:20    0.0    49   91.5    18    253.6    29.8    999.0   0.00  
 115   20:30    0.0    49   90.9    18    266.5    35.2    999.0   0.00  
 115   20:40    0.0    49   90.5    15    276.3    24.5    999.0   0.00  
 115   20:50    0.0    49   90.3    21    281.0    34.0    999.0   0.00  
 115   21:00    0.0    49   89.5    19    278.4    34.6    999.0   0.00  
 115   21:10    0.0    49   90.1    18    283.2    31.0    999.0   0.00  
 115   21:20    0.0    49   90.2    17    295.4    27.4    999.0   0.00  
 115   21:30    0.0    49   90.7    18    298.9    34.0    999.0   0.00  
 115   21:40    0.0    49   91.2    21    308.1    35.2    999.0   0.00  
 115   21:50    0.0    49   91.6    22    308.4    33.4    999.0   0.00  
 115   22:00    0.0    49   92.1    22    311.6    31.6    999.0   0.00  
 115   22:10    0.0    49   92.5    23    308.2    32.8    999.0   0.00  
 115   22:20    0.0    49   91.7    23    311.6    34.6    999.0   0.00  
 115   22:30    0.0    50   89.9    20    312.5    29.8    999.0   0.00  
 115   22:40    0.0    50   89.7    21    310.4    29.2    999.0   0.00  
 115   22:50    0.0    50   89.5    19    310.9    30.4    999.0   0.00  
 115   23:00    0.0    50   90.0    18    317.8    27.4    999.0   0.00  
 115   23:10    0.0    50   90.5    16    346.9    26.2    999.0   0.00  
 115   23:20    0.0    50   90.3    18    323.9    28.0    999.0   0.00  
 115   23:30    0.0    50   90.5    24    311.8    32.2    999.0   0.00  
 115   23:40    0.0    50   87.8    20    320.3    30.4    999.0   0.00  
 115   23:50    0.0    50   87.2    21    310.1    31.0    999.0   0.00  

Return to Silver Peak Trail graphs page.


Western Regional Climate Center,wrcc@dri.edu